Time;durP1;ratioP1;P1;durP2;ratioP2;P2;SDS_P1;SDS_P2;PMS_P1;PMS_P2;Temp;Humidity;BMP_temperature;BMP_pressure;BME280_temperature;BME280_humidity;BME280_pressure;Samples;Min_cycle;Max_cycle;Signal;HPM_P1;HPM_P2
2022/06/23 00:01:58;;;;;;;;;;;25.20;98.00;;;;;;5094659;28;19912;-56
2022/06/23 00:04:24;;;;;;;;;;;25.20;97.90;;;;;;5095082;28;19908;-56
2022/06/23 00:06:59;;;;;;;;;;;25.20;97.90;;;;;;5094693;28;19951;-56
2022/06/23 00:09:24;;;;;;;;;;;25.20;97.90;;;;;;5094931;28;19908;-56
2022/06/23 00:11:50;;;;;;;;;;;25.20;97.90;;;;;;5094603;28;20282;-57
2022/06/23 00:14:15;;;;;;;;;;;25.20;98.00;;;;;;5094872;28;19981;-56
2022/06/23 00:16:41;;;;;;;;;;;25.20;98.00;;;;;;5094815;28;19915;-55
2022/06/23 00:19:11;;;;;;;;;;;25.20;98.00;;;;;;5094752;28;20385;-55
2022/06/23 00:21:36;;;;;;;;;;;25.20;98.00;;;;;;5095068;28;19920;-55
2022/06/23 00:24:04;;;;;;;;;;;25.20;98.00;;;;;;5094691;28;19908;-56
2022/06/23 00:26:31;;;;;;;;;;;25.20;98.10;;;;;;5094239;28;19908;-56
2022/06/23 00:29:02;;;;;;;;;;;25.20;98.10;;;;;;5094653;28;20263;-56
2022/06/23 00:31:30;;;;;;;;;;;25.20;98.10;;;;;;5094528;28;19908;-57
2022/06/23 00:33:56;;;;;;;;;;;25.20;98.20;;;;;;5094487;28;20335;-56
2022/06/23 00:36:35;;;;;;;;;;;25.10;98.20;;;;;;5094212;28;19954;-55
2022/06/23 00:39:02;;;;;;;;;;;25.20;98.20;;;;;;5094364;28;19998;-55
2022/06/23 00:41:30;;;;;;;;;;;25.20;98.20;;;;;;5094192;28;19912;-57
2022/06/23 00:43:57;;;;;;;;;;;25.20;98.20;;;;;;5094410;28;19967;-57
2022/06/23 00:46:23;;;;;;;;;;;25.10;98.10;;;;;;5094158;28;19908;-53
2022/06/23 00:48:53;;;;;;;;;;;25.10;98.20;;;;;;5094305;28;19915;-57
2022/06/23 00:51:26;;;;;;;;;;;25.10;98.20;;;;;;5094646;28;20389;-56
2022/06/23 00:53:55;;;;;;;;;;;25.20;98.20;;;;;;5094253;28;19908;-54
2022/06/23 00:56:31;;;;;;;;;;;25.10;98.20;;;;;;5094230;28;19943;-56
2022/06/23 00:59:01;;;;;;;;;;;25.10;98.40;;;;;;5094215;28;19935;-56
2022/06/23 01:01:31;;;;;;;;;;;25.10;98.20;;;;;;5094166;28;20275;-53
2022/06/23 01:04:03;;;;;;;;;;;25.10;98.20;;;;;;5094509;28;19912;-53
2022/06/23 01:06:35;;;;;;;;;;;25.10;98.20;;;;;;5093856;28;19912;-55
2022/06/23 01:09:12;;;;;;;;;;;25.10;98.20;;;;;;5093825;28;19916;-55
2022/06/23 01:11:44;;;;;;;;;;;25.10;98.20;;;;;;5094261;28;19919;-56
2022/06/23 01:14:19;;;;;;;;;;;25.10;98.20;;;;;;5076058;28;19908;-56
2022/06/23 01:16:48;;;;;;;;;;;25.20;98.20;;;;;;5076050;28;19908;-56
2022/06/23 01:19:31;;;;;;;;;;;25.10;98.20;;;;;;5093685;28;19919;-55
2022/06/23 01:21:58;;;;;;;;;;;25.20;98.20;;;;;;5094074;28;19913;-56
2022/06/23 01:24:30;;;;;;;;;;;25.20;98.20;;;;;;5093987;28;19969;-56
2022/06/23 01:27:06;;;;;;;;;;;25.20;98.20;;;;;;5076018;28;19909;-56
2022/06/23 01:29:41;;;;;;;;;;;25.10;98.20;;;;;;5075898;28;19991;-55
2022/06/23 01:32:25;;;;;;;;;;;25.10;98.20;;;;;;5093621;28;20321;-57
2022/06/23 01:34:55;;;;;;;;;;;25.10;98.20;;;;;;5093842;28;19912;-56
2022/06/23 01:37:27;;;;;;;;;;;25.10;98.20;;;;;;5076954;28;19908;-56
2022/06/23 01:39:58;;;;;;;;;;;25.10;98.20;;;;;;5097379;28;19912;-55
2022/06/23 01:42:28;;;;;;;;;;;25.10;98.20;;;;;;5097527;28;19935;-55
2022/06/23 01:44:57;;;;;;;;;;;25.10;98.20;;;;;;5097606;28;19912;-54
2022/06/23 01:47:44;;;;;;;;;;;25.10;98.20;;;;;;5097263;28;19944;-55
2022/06/23 01:50:12;;;;;;;;;;;25.10;98.20;;;;;;5097339;28;19987;-56
2022/06/23 01:52:38;;;;;;;;;;;25.20;98.30;;;;;;5097168;28;19912;-55
2022/06/23 01:55:12;;;;;;;;;;;25.20;98.20;;;;;;5097328;28;19995;-54
2022/06/23 01:57:42;;;;;;;;;;;25.10;98.20;;;;;;5097663;28;19997;-54
2022/06/23 02:00:17;;;;;;;;;;;25.10;98.20;;;;;;5097372;28;19919;-54
2022/06/23 02:02:50;;;;;;;;;;;25.10;98.20;;;;;;5097338;28;19912;-54
2022/06/23 02:05:22;;;;;;;;;;;25.10;98.20;;;;;;5079122;28;19958;-54
2022/06/23 02:11:09;;;;;;;;;;;25.10;98.50;;;;;;5097032;28;19914;-54
2022/06/23 02:13:40;;;;;;;;;;;25.10;98.30;;;;;;5097432;28;20396;-51
2022/06/23 02:16:06;;;;;;;;;;;25.10;98.30;;;;;;5096833;28;19908;-55
2022/06/23 02:18:50;;;;;;;;;;;25.10;98.30;;;;;;5097014;28;19908;-55
2022/06/23 02:21:19;;;;;;;;;;;25.10;98.20;;;;;;5096714;28;19999;-53
2022/06/23 02:24:07;;;;;;;;;;;25.10;98.20;;;;;;5096876;28;19931;-54
2022/06/23 02:26:36;;;;;;;;;;;25.10;98.30;;;;;;5096893;28;19909;-53
2022/06/23 02:29:04;;;;;;;;;;;25.10;98.30;;;;;;5096590;28;19961;-54
2022/06/23 02:31:37;;;;;;;;;;;25.10;98.30;;;;;;5096810;28;20018;-51
2022/06/23 02:34:06;;;;;;;;;;;25.10;98.30;;;;;;5096404;28;20416;-54
2022/06/23 02:36:37;;;;;;;;;;;25.10;98.30;;;;;;5096623;28;19950;-54
2022/06/23 02:39:13;;;;;;;;;;;25.10;98.30;;;;;;5096681;28;19919;-54
2022/06/23 02:41:41;;;;;;;;;;;25.10;98.30;;;;;;5078671;28;19916;-51
2022/06/23 02:44:18;;;;;;;;;;;25.10;98.30;;;;;;5096545;28;19931;-55
2022/06/23 02:47:01;;;;;;;;;;;25.10;98.30;;;;;;5096213;28;19911;-51
2022/06/23 02:49:42;;;;;;;;;;;25.10;98.30;;;;;;5096244;28;19912;-55
2022/06/23 02:52:34;;;;;;;;;;;25.10;98.40;;;;;;5096656;28;19941;-55
2022/06/23 02:55:09;;;;;;;;;;;25.10;98.40;;;;;;5090859;28;19954;-55
2022/06/23 02:57:37;;;;;;;;;;;25.10;98.30;;;;;;5096053;28;20010;-55
2022/06/23 03:00:06;;;;;;;;;;;25.10;98.30;;;;;;5096137;28;19916;-54
2022/06/23 03:02:40;;;;;;;;;;;25.10;98.30;;;;;;5096250;28;20335;-55
2022/06/23 03:05:06;;;;;;;;;;;25.10;98.30;;;;;;5096028;28;19969;-55
2022/06/23 03:07:42;;;;;;;;;;;25.10;98.30;;;;;;5095914;28;19908;-55
2022/06/23 03:10:28;;;;;;;;;;;25.10;98.30;;;;;;5095933;28;19909;-54
2022/06/23 03:13:04;;;;;;;;;;;25.20;98.30;;;;;;5094730;28;20349;-54
2022/06/23 03:15:34;;;;;;;;;;;25.10;98.20;;;;;;5095603;28;19915;-53
2022/06/23 03:18:09;;;;;;;;;;;25.10;98.20;;;;;;5077730;28;19915;-54
2022/06/23 03:20:38;;;;;;;;;;;25.10;98.20;;;;;;5095579;28;20007;-54
2022/06/23 03:23:23;;;;;;;;;;;25.10;98.30;;;;;;5095421;28;20374;-54
2022/06/23 03:25:51;;;;;;;;;;;25.20;98.30;;;;;;5096106;28;19912;-53
2022/06/23 03:28:23;;;;;;;;;;;25.10;98.20;;;;;;5095307;28;19913;-53
2022/06/23 03:30:59;;;;;;;;;;;25.10;98.30;;;;;;5095542;28;19914;-54
2022/06/23 03:33:33;;;;;;;;;;;25.10;98.30;;;;;;5095434;28;19916;-53
2022/06/23 03:36:10;;;;;;;;;;;25.10;98.30;;;;;;5095061;28;19964;-54
2022/06/23 03:41:36;;;;;;;;;;;25.10;98.30;;;;;;5095309;28;20121;-54
2022/06/23 03:44:06;;;;;;;;;;;25.10;98.30;;;;;;5095345;28;20244;-52
2022/06/23 03:46:34;;;;;;;;;;;25.10;98.30;;;;;;5095040;28;19908;-53
2022/06/23 03:49:03;;;;;;;;;;;25.10;98.30;;;;;;5094966;28;19999;-52
2022/06/23 03:51:31;;;;;;;;;;;25.10;98.30;;;;;;5094942;28;19912;-53
2022/06/23 03:54:11;;;;;;;;;;;25.10;98.30;;;;;;5094532;28;20304;-51
2022/06/23 03:56:42;;;;;;;;;;;25.10;98.30;;;;;;5095169;28;20002;-55
2022/06/23 03:59:27;;;;;;;;;;;25.10;98.30;;;;;;5094830;28;19911;-54
2022/06/23 04:01:59;;;;;;;;;;;25.10;98.30;;;;;;5094667;28;19920;-55
2022/06/23 04:04:37;;;;;;;;;;;25.10;98.30;;;;;;5094587;28;19908;-56
2022/06/23 04:07:23;;;;;;;;;;;25.10;98.30;;;;;;5094640;28;19909;-53
2022/06/23 04:09:48;;;;;;;;;;;25.10;97.30;;;;;;5094310;28;19912;-55
2022/06/23 04:12:15;;;;;;;;;;;25.10;98.00;;;;;;5094455;28;20042;-53
2022/06/23 04:14:43;;;;;;;;;;;25.10;98.10;;;;;;5094431;28;19940;-55
2022/06/23 04:17:19;;;;;;;;;;;25.10;98.20;;;;;;5094616;28;19965;-51
2022/06/23 04:19:47;;;;;;;;;;;25.10;98.30;;;;;;5094484;28;20426;-54
2022/06/23 04:22:15;;;;;;;;;;;25.10;98.30;;;;;;5094907;28;19923;-53
2022/06/23 04:24:42;;;;;;;;;;;25.10;98.20;;;;;;5094212;28;19944;-53
2022/06/23 04:27:13;;;;;;;;;;;25.10;98.30;;;;;;5094465;28;19927;-53
2022/06/23 04:29:38;;;;;;;;;;;25.10;98.20;;;;;;5094397;28;19912;-55
2022/06/23 04:32:14;;;;;;;;;;;25.10;98.20;;;;;;5094100;28;19914;-52
2022/06/23 04:34:48;;;;;;;;;;;25.10;98.20;;;;;;5094008;28;19908;-55
2022/06/23 04:37:17;;;;;;;;;;;25.10;98.20;;;;;;5094056;28;19908;-54
2022/06/23 04:39:43;;;;;;;;;;;25.20;98.20;;;;;;5094248;28;19966;-54
2022/06/23 04:42:19;;;;;;;;;;;25.20;98.10;;;;;;5094236;28;20001;-56
2022/06/23 04:44:49;;;;;;;;;;;25.20;98.10;;;;;;5093953;28;19931;-52
2022/06/23 04:47:18;;;;;;;;;;;25.20;98.10;;;;;;5093891;28;19987;-55
2022/06/23 04:50:10;;;;;;;;;;;25.20;98.10;;;;;;5094203;28;19931;-52
2022/06/23 04:52:35;;;;;;;;;;;25.30;98.00;;;;;;5089211;28;20007;-55
2022/06/23 04:55:04;;;;;;;;;;;25.30;98.00;;;;;;5093610;28;20361;-54
2022/06/23 04:57:42;;;;;;;;;;;25.30;98.00;;;;;;5093689;28;20311;-55
2022/06/23 05:00:20;;;;;;;;;;;25.30;97.90;;;;;;5093871;28;19919;-54
2022/06/23 05:02:54;;;;;;;;;;;25.30;98.00;;;;;;5093647;28;20359;-54
2022/06/23 05:05:41;;;;;;;;;;;25.30;97.90;;;;;;5093845;28;19908;-53
2022/06/23 05:08:08;;;;;;;;;;;25.30;97.90;;;;;;5093325;28;20031;-54
2022/06/23 05:10:37;;;;;;;;;;;25.30;97.90;;;;;;5093898;28;19908;-52
2022/06/23 05:13:22;;;;;;;;;;;25.40;97.90;;;;;;5098018;28;19916;-53
2022/06/23 05:16:00;;;;;;;;;;;25.30;97.90;;;;;;5097457;28;19968;-55
2022/06/23 05:18:40;;;;;;;;;;;25.30;97.80;;;;;;5097800;28;19908;-52
2022/06/23 05:21:09;;;;;;;;;;;25.30;97.80;;;;;;5097416;28;19977;-54
2022/06/23 05:23:38;;;;;;;;;;;25.40;97.90;;;;;;5097415;28;19908;-56
2022/06/23 05:26:05;;;;;;;;;;;25.30;97.80;;;;;;5097615;28;19997;-55
2022/06/23 05:28:32;;;;;;;;;;;25.30;97.80;;;;;;5097538;28;20243;-54
2022/06/23 05:30:59;;;;;;;;;;;25.30;97.80;;;;;;5097455;28;19908;-55
2022/06/23 05:33:30;;;;;;;;;;;25.30;97.80;;;;;;5097306;28;19958;-52
2022/06/23 05:35:58;;;;;;;;;;;25.30;97.80;;;;;;5097473;28;20358;-51
2022/06/23 05:38:30;;;;;;;;;;;25.40;97.90;;;;;;5097399;28;19991;-52
2022/06/23 05:40:57;;;;;;;;;;;25.30;97.80;;;;;;5095231;28;19916;-56
2022/06/23 05:43:24;;;;;;;;;;;25.30;97.80;;;;;;5086474;28;20252;-54
2022/06/23 05:45:54;;;;;;;;;;;25.40;97.80;;;;;;5085245;28;19959;-52
2022/06/23 05:48:30;;;;;;;;;;;25.40;97.80;;;;;;5083703;28;20266;-54
2022/06/23 05:50:58;;;;;;;;;;;25.40;97.80;;;;;;5077115;28;19915;-51
2022/06/23 05:53:44;;;;;;;;;;;25.40;97.90;;;;;;5087426;28;19916;-54
2022/06/23 05:56:14;;;;;;;;;;;25.40;97.90;;;;;;5073116;28;20363;-50
2022/06/23 05:58:58;;;;;;;;;;;25.40;97.90;;;;;;5076560;28;19935;-50
2022/06/23 06:01:33;;;;;;;;;;;25.40;97.90;;;;;;5088162;28;19916;-53
2022/06/23 06:04:10;;;;;;;;;;;25.40;97.90;;;;;;5086724;28;20015;-51
2022/06/23 06:06:36;;;;;;;;;;;25.40;97.90;;;;;;5080285;28;19920;-53
2022/06/23 06:11:50;;;;;;;;;;;25.30;97.70;;;;;;5083341;28;20312;-50
2022/06/23 06:14:17;;;;;;;;;;;25.30;97.70;;;;;;5094720;28;19919;-50
2022/06/23 06:16:43;;;;;;;;;;;25.30;97.70;;;;;;5059760;28;19991;-51
2022/06/23 06:19:15;;;;;;;;;;;25.30;97.60;;;;;;5082691;28;20327;-51
2022/06/23 06:21:41;;;;;;;;;;;25.30;97.60;;;;;;5084684;28;20363;-51
2022/06/23 06:24:17;;;;;;;;;;;25.30;97.70;;;;;;5091546;28;19926;-54
2022/06/23 06:26:45;;;;;;;;;;;25.30;97.80;;;;;;5095710;28;19916;-57
2022/06/23 06:29:13;;;;;;;;;;;25.30;97.80;;;;;;5090470;28;20278;-52
2022/06/23 06:31:42;;;;;;;;;;;25.30;97.90;;;;;;5093386;28;19916;-52
2022/06/23 06:34:19;;;;;;;;;;;25.40;98.00;;;;;;5091967;28;19916;-51
2022/06/23 06:36:46;;;;;;;;;;;25.30;98.00;;;;;;5092101;28;19912;-57
2022/06/23 06:39:14;;;;;;;;;;;25.40;98.00;;;;;;5094644;28;19939;-58
2022/06/23 06:41:41;;;;;;;;;;;25.40;98.00;;;;;;5090615;28;19916;-62
2022/06/23 06:44:08;;;;;;;;;;;25.40;97.90;;;;;;5089536;28;20002;-64
2022/06/23 06:46:34;;;;;;;;;;;25.50;97.90;;;;;;5095114;28;19916;-66
2022/06/23 06:49:00;;;;;;;;;;;25.40;98.00;;;;;;5088915;28;20294;-63
2022/06/23 06:51:26;;;;;;;;;;;25.40;98.00;;;;;;5094399;28;19912;-64
2022/06/23 06:53:57;;;;;;;;;;;25.40;98.00;;;;;;5089391;28;19912;-64
2022/06/23 06:56:26;;;;;;;;;;;25.40;98.00;;;;;;5090306;28;19927;-63
2022/06/23 06:59:01;;;;;;;;;;;25.40;98.00;;;;;;5088041;28;19908;-70
2022/06/23 07:01:27;;;;;;;;;;;25.40;98.10;;;;;;5093054;28;19916;-56
2022/06/23 07:03:53;;;;;;;;;;;25.40;98.00;;;;;;5092876;28;19920;-60
2022/06/23 07:06:24;;;;;;;;;;;25.40;98.10;;;;;;5092933;28;19919;-54
2022/06/23 07:08:58;;;;;;;;;;;25.40;98.10;;;;;;5092233;28;19912;-59
2022/06/23 07:11:53;;;;;;;;;;;25.40;98.10;;;;;;5072466;28;19992;-55
2022/06/23 07:14:45;;;;;;;;;;;25.40;98.10;;;;;;5059397;28;20011;-51
2022/06/23 07:17:28;;;;;;;;;;;25.40;98.10;;;;;;5091538;28;19939;-59
2022/06/23 07:20:29;;;;;;;;;;;25.40;98.10;;;;;;5090905;28;19916;-61
2022/06/23 07:23:15;;;;;;;;;;;25.40;98.10;;;;;;4997258;28;19922;-56
2022/06/23 07:25:43;;;;;;;;;;;25.40;98.10;;;;;;5072855;28;20381;-54
2022/06/23 07:28:35;;;;;;;;;;;25.40;98.10;;;;;;5085722;28;19915;-58
2022/06/23 07:31:05;;;;;;;;;;;25.50;98.20;;;;;;5088087;28;19912;-59
2022/06/23 07:33:43;;;;;;;;;;;25.40;98.10;;;;;;5087666;28;19916;-58
2022/06/23 07:36:16;;;;;;;;;;;25.40;98.20;;;;;;5073614;28;20007;-52
2022/06/23 07:38:52;;;;;;;;;;;25.50;98.20;;;;;;5075145;28;19912;-52
2022/06/23 07:41:30;;;;;;;;;;;25.50;98.20;;;;;;5085480;28;19936;-54
2022/06/23 07:44:02;;;;;;;;;;;25.50;98.20;;;;;;5076014;28;19923;-59
2022/06/23 07:46:28;;;;;;;;;;;25.50;98.20;;;;;;5088414;28;19912;-59
2022/06/23 07:48:53;;;;;;;;;;;25.50;98.20;;;;;;5094423;28;20341;-61
2022/06/23 07:51:19;;;;;;;;;;;25.50;98.20;;;;;;5093809;28;19915;-49
2022/06/23 07:53:46;;;;;;;;;;;25.50;98.20;;;;;;5092149;28;20355;-54
2022/06/23 07:56:21;;;;;;;;;;;25.50;98.20;;;;;;5098847;28;19915;-56
2022/06/23 07:58:49;;;;;;;;;;;25.50;98.20;;;;;;5107682;28;19918;-57
2022/06/23 08:01:33;;;;;;;;;;;25.50;98.20;;;;;;5108011;28;19908;-57
2022/06/23 08:03:58;;;;;;;;;;;25.50;98.20;;;;;;5099423;28;19912;-58
2022/06/23 08:06:24;;;;;;;;;;;25.50;98.20;;;;;;5101818;28;19918;-61
2022/06/23 08:08:51;;;;;;;;;;;25.50;98.20;;;;;;5111468;28;19998;-56
2022/06/23 08:14:05;;;;;;;;;;;25.50;98.20;;;;;;5111489;28;19916;-60
2022/06/23 08:16:49;;;;;;;;;;;25.50;98.30;;;;;;5108718;28;19923;-58
2022/06/23 08:19:15;;;;;;;;;;;25.50;98.20;;;;;;5111046;28;19930;-59
2022/06/23 08:21:47;;;;;;;;;;;25.50;98.20;;;;;;5101107;28;19969;-60
2022/06/23 08:24:14;;;;;;;;;;;25.50;98.20;;;;;;5111277;28;19907;-53
2022/06/23 08:26:43;;;;;;;;;;;25.60;98.20;;;;;;5078405;28;19917;-52
2022/06/23 08:29:13;;;;;;;;;;;25.50;98.10;;;;;;5089588;28;19917;-56
2022/06/23 08:31:38;;;;;;;;;;;25.50;98.20;;;;;;5099422;28;19913;-55
2022/06/23 08:34:04;;;;;;;;;;;25.50;98.10;;;;;;5097945;28;20350;-62
2022/06/23 08:36:42;;;;;;;;;;;25.50;98.10;;;;;;5084637;28;20431;-56
2022/06/23 08:39:25;;;;;;;;;;;25.60;98.10;;;;;;5104556;28;19912;-55
2022/06/23 08:42:09;;;;;;;;;;;25.60;98.10;;;;;;5106101;28;20309;-58
2022/06/23 08:44:50;;;;;;;;;;;25.60;98.10;;;;;;5109791;28;20378;-62
2022/06/23 08:47:28;;;;;;;;;;;25.60;98.10;;;;;;5097457;28;20323;-58
2022/06/23 08:50:05;;;;;;;;;;;25.60;98.10;;;;;;5089196;28;19947;-52
2022/06/23 08:52:50;;;;;;;;;;;25.60;98.10;;;;;;5107086;28;19942;-54
2022/06/23 08:55:30;;;;;;;;;;;25.60;98.10;;;;;;5105453;28;19920;-57
2022/06/23 08:57:59;;;;;;;;;;;25.60;98.20;;;;;;5122158;28;19919;-59
2022/06/23 09:00:45;;;;;;;;;;;25.60;98.20;;;;;;5122073;28;20038;-55
2022/06/23 09:03:14;;;;;;;;;;;25.60;98.20;;;;;;5121750;27;19959;-51
2022/06/23 09:05:42;;;;;;;;;;;25.60;98.20;;;;;;5117248;28;19918;-59
2022/06/23 09:08:21;;;;;;;;;;;25.60;98.20;;;;;;5114287;28;19916;-59
2022/06/23 09:10:47;;;;;;;;;;;25.60;98.20;;;;;;5108417;28;19995;-59
2022/06/23 09:13:27;;;;;;;;;;;25.60;98.20;;;;;;5111243;28;19966;-57
2022/06/23 09:16:02;;;;;;;;;;;25.60;98.20;;;;;;5109974;28;20328;-55
2022/06/23 09:18:36;;;;;;;;;;;25.60;98.20;;;;;;5117123;28;19935;-62
2022/06/23 09:21:24;;;;;;;;;;;25.60;98.20;;;;;;5101861;28;19912;-59
2022/06/23 09:23:52;;;;;;;;;;;25.60;98.20;;;;;;5112429;28;19912;-58
2022/06/23 09:26:45;;;;;;;;;;;25.60;98.30;;;;;;5095880;28;19912;-60
2022/06/23 09:29:10;;;;;;;;;;;25.60;98.30;;;;;;5075234;28;19912;-58
2022/06/23 09:31:56;;;;;;;;;;;25.60;98.30;;;;;;5110192;28;20403;-59
2022/06/23 09:34:21;;;;;;;;;;;25.60;98.30;;;;;;5078552;28;20362;-62
2022/06/23 09:36:50;;;;;;;;;;;25.60;98.30;;;;;;5116801;28;19961;-61
2022/06/23 09:39:18;;;;;;;;;;;25.60;98.30;;;;;;5105985;28;20366;-58
2022/06/23 09:41:53;;;;;;;;;;;25.70;98.30;;;;;;5094028;28;19916;-54
2022/06/23 09:44:37;;;;;;;;;;;25.60;98.30;;;;;;5096123;28;19908;-57
2022/06/23 09:47:41;;;;;;;;;;;25.70;98.30;;;;;;5094949;28;19908;-53
2022/06/23 09:50:25;;;;;;;;;;;25.70;98.20;;;;;;5024828;28;19920;-59
2022/06/23 09:52:54;;;;;;;;;;;25.70;98.20;;;;;;5020674;28;19928;-60
2022/06/23 09:55:19;;;;;;;;;;;25.70;98.20;;;;;;5069514;28;19920;-60
2022/06/23 09:57:57;;;;;;;;;;;25.70;98.20;;;;;;5109923;28;19933;-56
2022/06/23 10:00:31;;;;;;;;;;;25.70;98.20;;;;;;5109418;28;19912;-61
2022/06/23 10:03:16;;;;;;;;;;;25.70;98.20;;;;;;5102214;28;19935;-59
2022/06/23 10:05:51;;;;;;;;;;;25.70;98.20;;;;;;5111697;28;19921;-60
2022/06/23 10:08:39;;;;;;;;;;;25.70;98.20;;;;;;5111360;28;19969;-60
2022/06/23 10:11:05;;;;;;;;;;;25.70;98.20;;;;;;5102366;28;20376;-59
2022/06/23 10:13:40;;;;;;;;;;;25.70;98.20;;;;;;5085804;28;20258;-59
2022/06/23 10:16:25;;;;;;;;;;;25.70;98.20;;;;;;5110725;28;19924;-59
2022/06/23 10:18:54;;;;;;;;;;;25.70;98.20;;;;;;5109571;28;19968;-59
2022/06/23 10:21:22;;;;;;;;;;;25.70;98.30;;;;;;5113439;28;20349;-57
2022/06/23 10:23:53;;;;;;;;;;;25.70;98.20;;;;;;5113212;28;19912;-58
2022/06/23 10:26:48;;;;;;;;;;;25.70;98.20;;;;;;5104943;28;19970;-58
2022/06/23 10:29:33;;;;;;;;;;;25.70;98.20;;;;;;5081441;28;19943;-58
2022/06/23 10:32:24;;;;;;;;;;;25.70;98.20;;;;;;5097295;28;19908;-57
2022/06/23 10:34:52;;;;;;;;;;;25.70;98.20;;;;;;5083941;28;19920;-58
2022/06/23 10:37:24;;;;;;;;;;;25.70;98.20;;;;;;5115290;28;19915;-58
2022/06/23 10:40:09;;;;;;;;;;;25.70;98.20;;;;;;5115264;28;20339;-58
2022/06/23 10:42:34;;;;;;;;;;;25.70;98.10;;;;;;5115529;28;19907;-57
2022/06/23 10:45:27;;;;;;;;;;;25.70;98.10;;;;;;5115368;28;20373;-58
2022/06/23 10:48:11;;;;;;;;;;;25.70;98.10;;;;;;5115350;28;19961;-58
2022/06/23 10:50:37;;;;;;;;;;;25.70;98.10;;;;;;5109866;28;19911;-57
2022/06/23 10:53:21;;;;;;;;;;;25.70;98.10;;;;;;5096241;28;19919;-51
2022/06/23 10:55:51;;;;;;;;;;;25.70;98.10;;;;;;5109476;28;20439;-55
2022/06/23 10:58:23;;;;;;;;;;;25.70;98.30;;;;;;5105545;28;19919;-51
2022/06/23 11:00:54;;;;;;;;;;;25.70;98.00;;;;;;5113723;28;19923;-51
2022/06/23 11:03:34;;;;;;;;;;;25.70;97.60;;;;;;5091680;28;19911;-56
2022/06/23 11:06:12;;;;;;;;;;;25.70;97.00;;;;;;5109134;28;20251;-55
2022/06/23 11:08:40;;;;;;;;;;;25.70;96.70;;;;;;5100481;28;19931;-70
2022/06/23 11:11:13;;;;;;;;;;;25.70;96.70;;;;;;5109459;28;19912;-66
2022/06/23 11:13:39;;;;;;;;;;;25.70;96.40;;;;;;5094751;28;20274;-66
2022/06/23 11:16:16;;;;;;;;;;;25.70;96.40;;;;;;5094096;28;19922;-67
2022/06/23 11:19:00;;;;;;;;;;;25.70;96.50;;;;;;5101167;28;19957;-64
2022/06/23 11:21:29;;;;;;;;;;;25.70;96.50;;;;;;5112485;28;19956;-63
2022/06/23 11:24:04;;;;;;;;;;;25.70;96.40;;;;;;5110769;28;20259;-67
2022/06/23 11:26:52;;;;;;;;;;;25.70;96.40;;;;;;5091249;28;19912;-66
2022/06/23 11:29:20;;;;;;;;;;;25.70;96.10;;;;;;5113811;28;20398;-64
2022/06/23 11:32:13;;;;;;;;;;;25.70;95.60;;;;;;5104796;28;20369;-65
2022/06/23 11:34:41;;;;;;;;;;;25.70;95.60;;;;;;5111139;28;19945;-65
2022/06/23 11:37:17;;;;;;;;;;;25.70;95.80;;;;;;5087428;28;19916;-67
2022/06/23 11:39:46;;;;;;;;;;;25.70;95.40;;;;;;5095164;28;19948;-65
2022/06/23 11:42:11;;;;;;;;;;;25.70;95.50;;;;;;5090013;28;19916;-64
2022/06/23 11:44:42;;;;;;;;;;;25.70;95.50;;;;;;5110584;28;20257;-63
2022/06/23 11:47:08;;;;;;;;;;;25.70;95.50;;;;;;5109113;28;19922;-64
2022/06/23 11:49:38;;;;;;;;;;;25.80;95.50;;;;;;5112449;28;19912;-66
2022/06/23 11:52:15;;;;;;;;;;;25.70;95.30;;;;;;5075879;28;19912;-64
2022/06/23 11:54:42;;;;;;;;;;;25.70;95.10;;;;;;5075770;28;20019;-65
2022/06/23 11:57:34;;;;;;;;;;;25.70;95.20;;;;;;5094164;28;19920;-60
2022/06/23 12:00:14;;;;;;;;;;;25.70;95.30;;;;;;5106791;28;20454;-60
2022/06/23 12:02:42;;;;;;;;;;;25.70;95.30;;;;;;5108644;28;20035;-61
2022/06/23 12:05:07;;;;;;;;;;;25.70;95.20;;;;;;5104137;28;19916;-58
2022/06/23 12:07:46;;;;;;;;;;;25.70;95.00;;;;;;5095851;28;20430;-63
2022/06/23 12:10:26;;;;;;;;;;;25.80;95.20;;;;;;5089535;28;19916;-64
2022/06/23 12:12:53;;;;;;;;;;;25.80;95.10;;;;;;5104521;28;20370;-58
2022/06/23 12:15:27;;;;;;;;;;;25.70;95.10;;;;;;5110163;28;19926;-59
2022/06/23 12:17:55;;;;;;;;;;;25.80;95.10;;;;;;5111459;28;19928;-57
2022/06/23 12:20:20;;;;;;;;;;;25.80;95.10;;;;;;5093786;28;20246;-61
2022/06/23 12:23:05;;;;;;;;;;;25.80;95.10;;;;;;5110199;28;19912;-63
2022/06/23 12:25:47;;;;;;;;;;;25.90;94.80;;;;;;5111637;28;19919;-62
2022/06/23 12:28:21;;;;;;;;;;;25.80;94.50;;;;;;5100689;28;19916;-62
2022/06/23 12:31:05;;;;;;;;;;;25.80;94.40;;;;;;5109591;28;19912;-61
2022/06/23 12:33:37;;;;;;;;;;;25.80;94.30;;;;;;5108483;28;20006;-62
2022/06/23 12:36:08;;;;;;;;;;;25.80;94.10;;;;;;5109640;28;19927;-63
2022/06/23 12:38:33;;;;;;;;;;;25.80;94.20;;;;;;5113880;28;19935;-64
2022/06/23 12:41:03;;;;;;;;;;;25.80;94.20;;;;;;5092631;28;19954;-61
2022/06/23 12:43:28;;;;;;;;;;;25.80;94.30;;;;;;5113533;28;20365;-62
2022/06/23 12:46:03;;;;;;;;;;;25.80;94.30;;;;;;5112984;28;19915;-61
2022/06/23 12:48:29;;;;;;;;;;;25.80;94.30;;;;;;5113006;28;19908;-64
2022/06/23 12:51:10;;;;;;;;;;;25.80;94.30;;;;;;5109435;28;20359;-64
2022/06/23 12:53:54;;;;;;;;;;;25.80;94.20;;;;;;5094215;28;20388;-63
2022/06/23 12:56:36;;;;;;;;;;;25.80;94.10;;;;;;5113979;28;19920;-63
2022/06/23 12:59:05;;;;;;;;;;;25.80;94.00;;;;;;5086367;28;20018;-60
2022/06/23 13:01:50;;;;;;;;;;;25.80;93.90;;;;;;5089370;28;19958;-65
2022/06/23 13:04:23;;;;;;;;;;;25.80;94.20;;;;;;5097543;28;19931;-62
2022/06/23 13:06:53;;;;;;;;;;;25.80;94.00;;;;;;5098977;28;19945;-62
2022/06/23 13:09:37;;;;;;;;;;;25.80;94.00;;;;;;5116844;28;19908;-62
2022/06/23 13:12:09;;;;;;;;;;;25.80;94.00;;;;;;5093633;28;20295;-62
2022/06/23 13:14:34;;;;;;;;;;;25.80;93.80;;;;;;5085391;28;19920;-65
2022/06/23 13:17:09;;;;;;;;;;;25.80;93.80;;;;;;5088226;28;20006;-59
2022/06/23 13:19:39;;;;;;;;;;;25.80;93.80;;;;;;5117251;28;19934;-61
2022/06/23 13:22:06;;;;;;;;;;;25.80;93.90;;;;;;5114470;28;19908;-61
2022/06/23 13:24:34;;;;;;;;;;;25.80;93.80;;;;;;5098292;28;19969;-64
2022/06/23 13:27:00;;;;;;;;;;;25.80;93.80;;;;;;5096830;28;19951;-60
2022/06/23 13:29:32;;;;;;;;;;;25.80;93.80;;;;;;5116980;28;20343;-62
2022/06/23 13:32:01;;;;;;;;;;;25.80;93.80;;;;;;5091553;28;19912;-65
2022/06/23 13:34:39;;;;;;;;;;;25.80;94.00;;;;;;5098411;28;20300;-65
2022/06/23 13:37:08;;;;;;;;;;;25.90;94.10;;;;;;5113080;28;19912;-63
2022/06/23 13:39:40;;;;;;;;;;;25.90;94.30;;;;;;5116311;28;19907;-63
2022/06/23 13:42:06;;;;;;;;;;;25.90;94.50;;;;;;5097556;28;20044;-66
2022/06/23 13:44:38;;;;;;;;;;;25.90;94.60;;;;;;5098217;28;19969;-66
2022/06/23 13:47:10;;;;;;;;;;;25.90;94.60;;;;;;5110346;28;20380;-61
2022/06/23 13:49:41;;;;;;;;;;;26.00;94.80;;;;;;5095274;28;19934;-62
2022/06/23 13:52:17;;;;;;;;;;;25.90;94.90;;;;;;5113142;28;19957;-64
2022/06/23 13:55:01;;;;;;;;;;;25.90;95.00;;;;;;5109103;28;19967;-64
2022/06/23 13:57:31;;;;;;;;;;;25.90;95.10;;;;;;5072575;28;19963;-66
2022/06/23 13:59:57;;;;;;;;;;;25.90;95.20;;;;;;5093423;28;19919;-62
2022/06/23 14:02:41;;;;;;;;;;;25.90;95.30;;;;;;5104930;28;19913;-63
2022/06/23 14:05:06;;;;;;;;;;;25.90;95.30;;;;;;5109647;28;19916;-63
2022/06/23 14:07:36;;;;;;;;;;;25.90;95.40;;;;;;5112850;28;19919;-61
2022/06/23 14:10:13;;;;;;;;;;;25.90;95.50;;;;;;5087527;28;19939;-61
2022/06/23 14:12:48;;;;;;;;;;;25.80;95.50;;;;;;5110414;28;19966;-65
2022/06/23 14:15:18;;;;;;;;;;;25.80;95.60;;;;;;5100095;28;19927;-51
2022/06/23 14:17:46;;;;;;;;;;;25.80;95.70;;;;;;5094781;28;19911;-48
2022/06/23 14:20:23;;;;;;;;;;;25.80;95.70;;;;;;5115626;28;20262;-49
2022/06/23 14:22:54;;;;;;;;;;;25.80;95.80;;;;;;5113289;28;20381;-53
2022/06/23 14:25:40;;;;;;;;;;;25.80;95.80;;;;;;5101029;28;19911;-54
2022/06/23 14:28:24;;;;;;;;;;;25.80;95.90;;;;;;5105902;28;19911;-51
2022/06/23 14:31:16;;;;;;;;;;;25.80;95.90;;;;;;5105109;28;19915;-52
2022/06/23 14:33:45;;;;;;;;;;;25.90;95.90;;;;;;5085880;28;20002;-50
2022/06/23 14:36:20;;;;;;;;;;;25.90;96.00;;;;;;5107023;28;19927;-50
2022/06/23 14:38:55;;;;;;;;;;;25.90;96.00;;;;;;5106743;28;19911;-51
2022/06/23 14:41:30;;;;;;;;;;;25.90;96.10;;;;;;5111124;28;19915;-49
2022/06/23 14:44:04;;;;;;;;;;;25.90;96.10;;;;;;5108326;28;19912;-56
2022/06/23 14:46:49;;;;;;;;;;;25.80;96.10;;;;;;5092641;28;20360;-52
2022/06/23 14:49:33;;;;;;;;;;;25.80;96.20;;;;;;5105940;28;20286;-55
2022/06/23 14:52:03;;;;;;;;;;;25.80;96.20;;;;;;5088834;28;19912;-54
2022/06/23 14:54:32;;;;;;;;;;;25.80;96.30;;;;;;5111677;28;19920;-54
2022/06/23 14:57:02;;;;;;;;;;;25.80;96.30;;;;;;5104572;28;20372;-54
2022/06/23 14:59:34;;;;;;;;;;;25.80;96.40;;;;;;5104212;28;19919;-60
2022/06/23 15:02:02;;;;;;;;;;;25.80;96.40;;;;;;5101551;28;20050;-54
2022/06/23 15:04:33;;;;;;;;;;;25.80;96.40;;;;;;5090164;28;19916;-48